sensor_id;sensor_type;location;lat;lon;timestamp;P1;durP1;ratioP1;P2;durP2;ratioP2
5010;SDS011;2524;54.364;10.072;2022-09-09T00:00:25;11.67;;;10.47;;
5010;SDS011;2524;54.364;10.072;2022-09-09T00:02:56;11.10;;;10.00;;
5010;SDS011;2524;54.364;10.072;2022-09-09T00:05:28;14.27;;;12.40;;
5010;SDS011;2524;54.364;10.072;2022-09-09T00:07:55;10.90;;;9.80;;
5010;SDS011;2524;54.364;10.072;2022-09-09T00:13:16;23.00;;;18.80;;
5010;SDS011;2524;54.364;10.072;2022-09-09T00:16:04;14.87;;;13.27;;
5010;SDS011;2524;54.364;10.072;2022-09-09T00:21:06;19.80;;;15.50;;
5010;SDS011;2524;54.364;10.072;2022-09-09T00:23:39;15.47;;;13.87;;
5010;SDS011;2524;54.364;10.072;2022-09-09T00:26:09;23.93;;;19.60;;
5010;SDS011;2524;54.364;10.072;2022-09-09T00:28:45;21.00;;;16.20;;
5010;SDS011;2524;54.364;10.072;2022-09-09T00:31:18;17.83;;;15.93;;
5010;SDS011;2524;54.364;10.072;2022-09-09T00:33:46;12.33;;;11.10;;
5010;SDS011;2524;54.364;10.072;2022-09-09T00:36:14;14.00;;;12.50;;
5010;SDS011;2524;54.364;10.072;2022-09-09T00:38:43;18.93;;;16.60;;
5010;SDS011;2524;54.364;10.072;2022-09-09T00:41:21;21.73;;;18.37;;
5010;SDS011;2524;54.364;10.072;2022-09-09T00:43:55;18.23;;;16.20;;
5010;SDS011;2524;54.364;10.072;2022-09-09T00:46:43;15.10;;;13.30;;
5010;SDS011;2524;54.364;10.072;2022-09-09T00:49:15;14.77;;;13.17;;
5010;SDS011;2524;54.364;10.072;2022-09-09T00:59:42;14.30;;;12.90;;
5010;SDS011;2524;54.364;10.072;2022-09-09T01:04:49;14.50;;;12.90;;
5010;SDS011;2524;54.364;10.072;2022-09-09T01:07:18;21.03;;;18.77;;
5010;SDS011;2524;54.364;10.072;2022-09-09T01:09:48;19.87;;;17.33;;
5010;SDS011;2524;54.364;10.072;2022-09-09T01:14:55;18.33;;;16.27;;
5010;SDS011;2524;54.364;10.072;2022-09-09T01:17:33;21.23;;;18.43;;
5010;SDS011;2524;54.364;10.072;2022-09-09T01:20:14;19.10;;;16.43;;
5010;SDS011;2524;54.364;10.072;2022-09-09T01:27:46;12.73;;;11.50;;
5010;SDS011;2524;54.364;10.072;2022-09-09T01:30:14;11.90;;;10.70;;
5010;SDS011;2524;54.364;10.072;2022-09-09T01:32:42;12.33;;;11.07;;
5010;SDS011;2524;54.364;10.072;2022-09-09T01:37:58;15.73;;;14.10;;
5010;SDS011;2524;54.364;10.072;2022-09-09T01:40:24;14.00;;;12.50;;
5010;SDS011;2524;54.364;10.072;2022-09-09T01:42:50;13.20;;;11.90;;
5010;SDS011;2524;54.364;10.072;2022-09-09T01:45:17;20.30;;;16.87;;
5010;SDS011;2524;54.364;10.072;2022-09-09T01:47:43;14.63;;;13.13;;
5010;SDS011;2524;54.364;10.072;2022-09-09T01:50:10;12.70;;;11.50;;
5010;SDS011;2524;54.364;10.072;2022-09-09T01:52:37;10.50;;;9.50;;
5010;SDS011;2524;54.364;10.072;2022-09-09T01:55:04;10.40;;;9.50;;
5010;SDS011;2524;54.364;10.072;2022-09-09T01:57:31;11.77;;;10.57;;
5010;SDS011;2524;54.364;10.072;2022-09-09T02:00:04;9.10;;;8.27;;
5010;SDS011;2524;54.364;10.072;2022-09-09T02:05:13;12.33;;;11.10;;
5010;SDS011;2524;54.364;10.072;2022-09-09T02:07:46;11.60;;;10.50;;
5010;SDS011;2524;54.364;10.072;2022-09-09T02:10:28;12.67;;;11.47;;
5010;SDS011;2524;54.364;10.072;2022-09-09T02:13:00;9.90;;;9.00;;
5010;SDS011;2524;54.364;10.072;2022-09-09T02:15:31;12.37;;;11.17;;
5010;SDS011;2524;54.364;10.072;2022-09-09T02:17:58;16.63;;;13.47;;
5010;SDS011;2524;54.364;10.072;2022-09-09T02:20:24;13.17;;;11.77;;
5010;SDS011;2524;54.364;10.072;2022-09-09T02:22:52;10.93;;;9.93;;
5010;SDS011;2524;54.364;10.072;2022-09-09T02:25:21;9.63;;;8.67;;
5010;SDS011;2524;54.364;10.072;2022-09-09T02:27:48;10.33;;;9.40;;
5010;SDS011;2524;54.364;10.072;2022-09-09T02:30:15;11.90;;;10.70;;
5010;SDS011;2524;54.364;10.072;2022-09-09T02:32:42;9.53;;;8.63;;
5010;SDS011;2524;54.364;10.072;2022-09-09T02:35:10;11.30;;;10.20;;
5010;SDS011;2524;54.364;10.072;2022-09-09T02:37:38;12.60;;;11.37;;
5010;SDS011;2524;54.364;10.072;2022-09-09T02:40:06;12.77;;;10.30;;
5010;SDS011;2524;54.364;10.072;2022-09-09T02:42:38;11.10;;;10.00;;
5010;SDS011;2524;54.364;10.072;2022-09-09T02:45:05;13.43;;;12.03;;
5010;SDS011;2524;54.364;10.072;2022-09-09T02:47:34;13.13;;;11.83;;
5010;SDS011;2524;54.364;10.072;2022-09-09T02:55:16;15.87;;;14.13;;
5010;SDS011;2524;54.364;10.072;2022-09-09T02:57:43;20.37;;;18.10;;
5010;SDS011;2524;54.364;10.072;2022-09-09T03:00:12;20.83;;;18.03;;
5010;SDS011;2524;54.364;10.072;2022-09-09T03:02:38;15.93;;;14.00;;
5010;SDS011;2524;54.364;10.072;2022-09-09T03:05:05;15.63;;;13.93;;
5010;SDS011;2524;54.364;10.072;2022-09-09T03:07:31;12.33;;;10.80;;
5010;SDS011;2524;54.364;10.072;2022-09-09T03:09:57;12.57;;;11.27;;
5010;SDS011;2524;54.364;10.072;2022-09-09T03:12:23;13.10;;;11.70;;
5010;SDS011;2524;54.364;10.072;2022-09-09T03:14:48;11.27;;;10.10;;
5010;SDS011;2524;54.364;10.072;2022-09-09T03:17:14;14.90;;;13.30;;
5010;SDS011;2524;54.364;10.072;2022-09-09T03:19:40;17.80;;;14.03;;
5010;SDS011;2524;54.364;10.072;2022-09-09T03:22:05;14.60;;;13.10;;
5010;SDS011;2524;54.364;10.072;2022-09-09T03:24:32;11.27;;;10.17;;
5010;SDS011;2524;54.364;10.072;2022-09-09T03:26:59;15.10;;;13.53;;
5010;SDS011;2524;54.364;10.072;2022-09-09T03:29:25;18.10;;;12.47;;
5010;SDS011;2524;54.364;10.072;2022-09-09T03:31:51;19.33;;;15.97;;
5010;SDS011;2524;54.364;10.072;2022-09-09T03:34:17;27.27;;;19.03;;
5010;SDS011;2524;54.364;10.072;2022-09-09T03:36:43;20.87;;;16.30;;
5010;SDS011;2524;54.364;10.072;2022-09-09T03:39:09;21.07;;;15.93;;
5010;SDS011;2524;54.364;10.072;2022-09-09T03:41:35;17.70;;;14.73;;
5010;SDS011;2524;54.364;10.072;2022-09-09T03:44:02;19.33;;;14.43;;
5010;SDS011;2524;54.364;10.072;2022-09-09T03:46:28;29.40;;;21.03;;
5010;SDS011;2524;54.364;10.072;2022-09-09T03:48:54;28.63;;;20.07;;
5010;SDS011;2524;54.364;10.072;2022-09-09T03:51:20;32.37;;;21.80;;
5010;SDS011;2524;54.364;10.072;2022-09-09T03:53:47;38.87;;;27.80;;
5010;SDS011;2524;54.364;10.072;2022-09-09T03:56:13;30.43;;;21.50;;
5010;SDS011;2524;54.364;10.072;2022-09-09T03:58:39;27.17;;;19.73;;
5010;SDS011;2524;54.364;10.072;2022-09-09T04:01:07;21.10;;;17.13;;
5010;SDS011;2524;54.364;10.072;2022-09-09T04:03:38;19.30;;;13.67;;
5010;SDS011;2524;54.364;10.072;2022-09-09T04:06:04;28.80;;;20.40;;
5010;SDS011;2524;54.364;10.072;2022-09-09T04:08:31;40.33;;;23.30;;
5010;SDS011;2524;54.364;10.072;2022-09-09T04:10:57;33.87;;;22.03;;
5010;SDS011;2524;54.364;10.072;2022-09-09T04:13:24;25.37;;;18.80;;
5010;SDS011;2524;54.364;10.072;2022-09-09T04:15:54;30.13;;;21.17;;
5010;SDS011;2524;54.364;10.072;2022-09-09T04:18:20;31.40;;;21.80;;
5010;SDS011;2524;54.364;10.072;2022-09-09T04:20:47;24.50;;;18.73;;
5010;SDS011;2524;54.364;10.072;2022-09-09T04:23:13;24.90;;;19.33;;
5010;SDS011;2524;54.364;10.072;2022-09-09T04:25:43;18.97;;;14.30;;
5010;SDS011;2524;54.364;10.072;2022-09-09T04:28:09;20.73;;;15.90;;
5010;SDS011;2524;54.364;10.072;2022-09-09T04:30:35;25.77;;;19.13;;
5010;SDS011;2524;54.364;10.072;2022-09-09T04:33:01;23.87;;;16.87;;
5010;SDS011;2524;54.364;10.072;2022-09-09T04:35:27;15.77;;;13.17;;
5010;SDS011;2524;54.364;10.072;2022-09-09T04:37:53;18.20;;;14.40;;
5010;SDS011;2524;54.364;10.072;2022-09-09T04:40:19;18.20;;;13.53;;
5010;SDS011;2524;54.364;10.072;2022-09-09T04:42:47;18.10;;;13.93;;
5010;SDS011;2524;54.364;10.072;2022-09-09T04:45:15;20.40;;;15.10;;
5010;SDS011;2524;54.364;10.072;2022-09-09T04:47:41;28.20;;;20.50;;
5010;SDS011;2524;54.364;10.072;2022-09-09T04:50:07;24.83;;;18.37;;
5010;SDS011;2524;54.364;10.072;2022-09-09T04:52:34;31.43;;;21.20;;
5010;SDS011;2524;54.364;10.072;2022-09-09T04:55:00;21.17;;;15.10;;
5010;SDS011;2524;54.364;10.072;2022-09-09T04:57:26;22.83;;;17.53;;
5010;SDS011;2524;54.364;10.072;2022-09-09T04:59:53;27.47;;;20.20;;
5010;SDS011;2524;54.364;10.072;2022-09-09T05:02:19;21.27;;;16.13;;
5010;SDS011;2524;54.364;10.072;2022-09-09T05:04:45;22.57;;;16.80;;
5010;SDS011;2524;54.364;10.072;2022-09-09T05:07:11;22.17;;;16.00;;
5010;SDS011;2524;54.364;10.072;2022-09-09T05:09:39;34.73;;;23.77;;
5010;SDS011;2524;54.364;10.072;2022-09-09T05:12:04;30.53;;;21.27;;
5010;SDS011;2524;54.364;10.072;2022-09-09T05:14:31;24.43;;;17.23;;
5010;SDS011;2524;54.364;10.072;2022-09-09T05:16:58;22.10;;;15.63;;
5010;SDS011;2524;54.364;10.072;2022-09-09T05:19:24;23.17;;;16.10;;
5010;SDS011;2524;54.364;10.072;2022-09-09T05:21:49;27.77;;;19.80;;
5010;SDS011;2524;54.364;10.072;2022-09-09T05:24:16;30.83;;;19.77;;
5010;SDS011;2524;54.364;10.072;2022-09-09T05:26:42;26.07;;;17.60;;
5010;SDS011;2524;54.364;10.072;2022-09-09T05:29:09;27.30;;;19.17;;
5010;SDS011;2524;54.364;10.072;2022-09-09T05:31:35;25.63;;;16.67;;
5010;SDS011;2524;54.364;10.072;2022-09-09T05:34:01;50.10;;;30.33;;
5010;SDS011;2524;54.364;10.072;2022-09-09T05:36:27;68.33;;;37.33;;
5010;SDS011;2524;54.364;10.072;2022-09-09T05:38:53;55.97;;;33.13;;
5010;SDS011;2524;54.364;10.072;2022-09-09T05:41:19;49.00;;;30.37;;
5010;SDS011;2524;54.364;10.072;2022-09-09T05:43:46;50.77;;;29.50;;
5010;SDS011;2524;54.364;10.072;2022-09-09T05:46:14;37.07;;;24.43;;
5010;SDS011;2524;54.364;10.072;2022-09-09T05:48:41;55.53;;;32.63;;
5010;SDS011;2524;54.364;10.072;2022-09-09T05:51:12;49.60;;;30.07;;
5010;SDS011;2524;54.364;10.072;2022-09-09T05:53:41;41.53;;;25.07;;
5010;SDS011;2524;54.364;10.072;2022-09-09T05:56:09;33.73;;;22.33;;
5010;SDS011;2524;54.364;10.072;2022-09-09T05:58:39;35.80;;;23.23;;
5010;SDS011;2524;54.364;10.072;2022-09-09T06:01:06;35.10;;;22.17;;
5010;SDS011;2524;54.364;10.072;2022-09-09T06:03:33;45.27;;;28.80;;
5010;SDS011;2524;54.364;10.072;2022-09-09T06:06:00;47.20;;;28.90;;
5010;SDS011;2524;54.364;10.072;2022-09-09T06:08:26;32.90;;;22.97;;
5010;SDS011;2524;54.364;10.072;2022-09-09T06:10:52;35.23;;;23.27;;
5010;SDS011;2524;54.364;10.072;2022-09-09T06:13:18;52.43;;;31.13;;
5010;SDS011;2524;54.364;10.072;2022-09-09T06:15:51;35.80;;;24.30;;
5010;SDS011;2524;54.364;10.072;2022-09-09T06:18:17;37.10;;;24.80;;
5010;SDS011;2524;54.364;10.072;2022-09-09T06:20:52;35.10;;;23.23;;
5010;SDS011;2524;54.364;10.072;2022-09-09T06:23:19;28.90;;;19.67;;
5010;SDS011;2524;54.364;10.072;2022-09-09T06:25:45;39.13;;;25.53;;
5010;SDS011;2524;54.364;10.072;2022-09-09T06:28:11;54.17;;;31.50;;
5010;SDS011;2524;54.364;10.072;2022-09-09T06:30:38;48.90;;;30.53;;
5010;SDS011;2524;54.364;10.072;2022-09-09T06:33:05;53.97;;;30.93;;
5010;SDS011;2524;54.364;10.072;2022-09-09T06:35:31;39.60;;;24.40;;
5010;SDS011;2524;54.364;10.072;2022-09-09T06:37:57;47.80;;;27.20;;
5010;SDS011;2524;54.364;10.072;2022-09-09T06:40:23;33.40;;;22.60;;
5010;SDS011;2524;54.364;10.072;2022-09-09T06:42:49;44.17;;;26.47;;
5010;SDS011;2524;54.364;10.072;2022-09-09T06:45:16;58.90;;;33.30;;
5010;SDS011;2524;54.364;10.072;2022-09-09T06:47:42;48.60;;;27.00;;
5010;SDS011;2524;54.364;10.072;2022-09-09T06:50:08;35.60;;;21.50;;
5010;SDS011;2524;54.364;10.072;2022-09-09T06:52:35;30.57;;;20.00;;
5010;SDS011;2524;54.364;10.072;2022-09-09T06:55:02;30.17;;;19.07;;
5010;SDS011;2524;54.364;10.072;2022-09-09T06:57:28;61.23;;;31.90;;
5010;SDS011;2524;54.364;10.072;2022-09-09T06:59:55;50.77;;;28.23;;
5010;SDS011;2524;54.364;10.072;2022-09-09T07:02:20;35.80;;;21.83;;
5010;SDS011;2524;54.364;10.072;2022-09-09T07:04:46;55.50;;;31.90;;
5010;SDS011;2524;54.364;10.072;2022-09-09T07:07:15;49.57;;;29.07;;
5010;SDS011;2524;54.364;10.072;2022-09-09T07:09:42;38.90;;;24.00;;
5010;SDS011;2524;54.364;10.072;2022-09-09T07:12:10;59.20;;;32.40;;
5010;SDS011;2524;54.364;10.072;2022-09-09T07:14:38;41.40;;;25.10;;
5010;SDS011;2524;54.364;10.072;2022-09-09T07:17:04;35.20;;;22.00;;
5010;SDS011;2524;54.364;10.072;2022-09-09T07:19:30;45.67;;;27.87;;
5010;SDS011;2524;54.364;10.072;2022-09-09T07:21:56;35.80;;;23.10;;
5010;SDS011;2524;54.364;10.072;2022-09-09T07:24:22;25.43;;;17.63;;
5010;SDS011;2524;54.364;10.072;2022-09-09T07:26:48;46.60;;;29.60;;
5010;SDS011;2524;54.364;10.072;2022-09-09T07:29:14;38.70;;;24.47;;
5010;SDS011;2524;54.364;10.072;2022-09-09T07:31:41;56.47;;;32.40;;
5010;SDS011;2524;54.364;10.072;2022-09-09T07:34:07;37.00;;;24.33;;
5010;SDS011;2524;54.364;10.072;2022-09-09T07:36:37;40.80;;;26.43;;
5010;SDS011;2524;54.364;10.072;2022-09-09T07:39:04;38.80;;;24.50;;
5010;SDS011;2524;54.364;10.072;2022-09-09T07:41:49;30.70;;;20.67;;
5010;SDS011;2524;54.364;10.072;2022-09-09T07:44:16;32.27;;;21.50;;
5010;SDS011;2524;54.364;10.072;2022-09-09T07:46:43;27.00;;;19.47;;
5010;SDS011;2524;54.364;10.072;2022-09-09T07:49:10;36.07;;;23.20;;
5010;SDS011;2524;54.364;10.072;2022-09-09T07:51:40;25.57;;;18.50;;
5010;SDS011;2524;54.364;10.072;2022-09-09T07:54:07;36.00;;;24.77;;
5010;SDS011;2524;54.364;10.072;2022-09-09T07:56:34;30.97;;;21.53;;
5010;SDS011;2524;54.364;10.072;2022-09-09T07:59:01;31.30;;;21.13;;
5010;SDS011;2524;54.364;10.072;2022-09-09T08:01:39;37.93;;;25.00;;
5010;SDS011;2524;54.364;10.072;2022-09-09T08:04:06;31.43;;;23.60;;
5010;SDS011;2524;54.364;10.072;2022-09-09T08:06:36;31.20;;;23.30;;
5010;SDS011;2524;54.364;10.072;2022-09-09T08:09:04;24.13;;;18.47;;
5010;SDS011;2524;54.364;10.072;2022-09-09T08:11:30;22.93;;;17.87;;
5010;SDS011;2524;54.364;10.072;2022-09-09T08:13:56;30.80;;;22.43;;
5010;SDS011;2524;54.364;10.072;2022-09-09T08:16:24;18.50;;;15.80;;
5010;SDS011;2524;54.364;10.072;2022-09-09T08:18:51;17.73;;;14.30;;
5010;SDS011;2524;54.364;10.072;2022-09-09T08:21:20;16.77;;;14.00;;
5010;SDS011;2524;54.364;10.072;2022-09-09T08:23:46;14.40;;;12.90;;
5010;SDS011;2524;54.364;10.072;2022-09-09T08:26:14;14.43;;;12.33;;
5010;SDS011;2524;54.364;10.072;2022-09-09T08:28:40;14.77;;;11.50;;
5010;SDS011;2524;54.364;10.072;2022-09-09T08:31:07;26.43;;;19.93;;
5010;SDS011;2524;54.364;10.072;2022-09-09T08:33:34;23.70;;;18.67;;
5010;SDS011;2524;54.364;10.072;2022-09-09T08:36:02;21.77;;;16.03;;
5010;SDS011;2524;54.364;10.072;2022-09-09T08:38:28;16.70;;;13.17;;
5010;SDS011;2524;54.364;10.072;2022-09-09T08:40:54;14.03;;;12.27;;
5010;SDS011;2524;54.364;10.072;2022-09-09T08:43:25;25.23;;;19.10;;
5010;SDS011;2524;54.364;10.072;2022-09-09T08:45:59;20.60;;;15.87;;
5010;SDS011;2524;54.364;10.072;2022-09-09T08:48:44;25.30;;;18.40;;
5010;SDS011;2524;54.364;10.072;2022-09-09T08:51:13;27.53;;;20.50;;
5010;SDS011;2524;54.364;10.072;2022-09-09T08:53:43;18.40;;;15.37;;
5010;SDS011;2524;54.364;10.072;2022-09-09T08:56:11;17.40;;;13.83;;
5010;SDS011;2524;54.364;10.072;2022-09-09T08:58:44;13.90;;;12.20;;
5010;SDS011;2524;54.364;10.072;2022-09-09T09:11:39;20.73;;;16.27;;
5010;SDS011;2524;54.364;10.072;2022-09-09T09:14:25;12.83;;;11.60;;
5010;SDS011;2524;54.364;10.072;2022-09-09T09:19:23;24.17;;;18.40;;
5010;SDS011;2524;54.364;10.072;2022-09-09T09:24:52;21.90;;;17.73;;
5010;SDS011;2524;54.364;10.072;2022-09-09T09:27:25;19.00;;;17.00;;
5010;SDS011;2524;54.364;10.072;2022-09-09T09:29:54;17.10;;;15.40;;
5010;SDS011;2524;54.364;10.072;2022-09-09T09:32:21;15.10;;;13.60;;
5010;SDS011;2524;54.364;10.072;2022-09-09T09:34:57;17.00;;;15.20;;
5010;SDS011;2524;54.364;10.072;2022-09-09T09:37:29;18.73;;;16.90;;
5010;SDS011;2524;54.364;10.072;2022-09-09T09:39:55;17.13;;;15.43;;
5010;SDS011;2524;54.364;10.072;2022-09-09T09:42:21;12.67;;;11.47;;
5010;SDS011;2524;54.364;10.072;2022-09-09T09:44:48;14.60;;;13.20;;
5010;SDS011;2524;54.364;10.072;2022-09-09T09:47:18;18.97;;;16.93;;
5010;SDS011;2524;54.364;10.072;2022-09-09T09:50:00;20.07;;;17.90;;
5010;SDS011;2524;54.364;10.072;2022-09-09T09:52:30;16.30;;;14.70;;
5010;SDS011;2524;54.364;10.072;2022-09-09T09:54:59;23.07;;;19.30;;
5010;SDS011;2524;54.364;10.072;2022-09-09T09:57:28;26.10;;;23.33;;
5010;SDS011;2524;54.364;10.072;2022-09-09T10:02:40;18.30;;;16.63;;
5010;SDS011;2524;54.364;10.072;2022-09-09T10:05:24;14.43;;;13.23;;
5010;SDS011;2524;54.364;10.072;2022-09-09T10:10:40;17.60;;;15.90;;
5010;SDS011;2524;54.364;10.072;2022-09-09T10:21:13;13.33;;;12.03;;
5010;SDS011;2524;54.364;10.072;2022-09-09T10:29:30;9.87;;;9.07;;
5010;SDS011;2524;54.364;10.072;2022-09-09T10:32:03;12.40;;;11.30;;
5010;SDS011;2524;54.364;10.072;2022-09-09T10:34:54;9.57;;;8.77;;
5010;SDS011;2524;54.364;10.072;2022-09-09T10:39:48;7.40;;;6.80;;
5010;SDS011;2524;54.364;10.072;2022-09-09T10:42:17;8.97;;;8.07;;
5010;SDS011;2524;54.364;10.072;2022-09-09T10:45:04;9.83;;;8.87;;
5010;SDS011;2524;54.364;10.072;2022-09-09T10:47:40;8.40;;;7.73;;
5010;SDS011;2524;54.364;10.072;2022-09-09T10:50:28;9.53;;;8.17;;
5010;SDS011;2524;54.364;10.072;2022-09-09T10:55:27;6.80;;;6.10;;
5010;SDS011;2524;54.364;10.072;2022-09-09T10:57:54;4.80;;;4.50;;
5010;SDS011;2524;54.364;10.072;2022-09-09T11:00:38;3.37;;;3.17;;
5010;SDS011;2524;54.364;10.072;2022-09-09T11:03:05;3.73;;;3.53;;
5010;SDS011;2524;54.364;10.072;2022-09-09T11:08:08;3.57;;;3.30;;
5010;SDS011;2524;54.364;10.072;2022-09-09T11:13:49;2.10;;;2.00;;
5010;SDS011;2524;54.364;10.072;2022-09-09T11:21:52;2.13;;;2.03;;
5010;SDS011;2524;54.364;10.072;2022-09-09T11:24:23;3.00;;;2.80;;
5010;SDS011;2524;54.364;10.072;2022-09-09T11:26:53;1.50;;;1.50;;
5010;SDS011;2524;54.364;10.072;2022-09-09T11:32:04;1.00;;;1.00;;
5010;SDS011;2524;54.364;10.072;2022-09-09T11:37:25;1.20;;;1.20;;
5010;SDS011;2524;54.364;10.072;2022-09-09T11:42:38;1.20;;;1.20;;
5010;SDS011;2524;54.364;10.072;2022-09-09T11:45:38;1.10;;;1.10;;
5010;SDS011;2524;54.364;10.072;2022-09-09T11:47:58;3.10;;;1.40;;
5010;SDS011;2524;54.364;10.072;2022-09-09T11:50:28;1.70;;;1.60;;
5010;SDS011;2524;54.364;10.072;2022-09-09T11:53:05;2.90;;;1.70;;
5010;SDS011;2524;54.364;10.072;2022-09-09T11:55:33;2.23;;;1.30;;
5010;SDS011;2524;54.364;10.072;2022-09-09T11:58:03;1.17;;;1.10;;
5010;SDS011;2524;54.364;10.072;2022-09-09T12:00:38;1.30;;;1.30;;
5010;SDS011;2524;54.364;10.072;2022-09-09T12:03:05;1.30;;;1.20;;
5010;SDS011;2524;54.364;10.072;2022-09-09T12:05:49;2.50;;;1.87;;
5010;SDS011;2524;54.364;10.072;2022-09-09T12:08:26;2.20;;;1.10;;
5010;SDS011;2524;54.364;10.072;2022-09-09T12:10:54;0.90;;;0.90;;
5010;SDS011;2524;54.364;10.072;2022-09-09T12:13:21;1.20;;;1.10;;
5010;SDS011;2524;54.364;10.072;2022-09-09T12:16:00;1.30;;;1.20;;
5010;SDS011;2524;54.364;10.072;2022-09-09T12:18:34;1.60;;;1.30;;
5010;SDS011;2524;54.364;10.072;2022-09-09T12:24:32;1.30;;;1.20;;
5010;SDS011;2524;54.364;10.072;2022-09-09T12:26:41;2.20;;;1.20;;
5010;SDS011;2524;54.364;10.072;2022-09-09T12:32:04;0.80;;;0.80;;
5010;SDS011;2524;54.364;10.072;2022-09-09T12:36:59;0.70;;;0.70;;
5010;SDS011;2524;54.364;10.072;2022-09-09T12:39:41;2.60;;;0.90;;
5010;SDS011;2524;54.364;10.072;2022-09-09T12:42:17;0.97;;;0.97;;
5010;SDS011;2524;54.364;10.072;2022-09-09T12:44:56;1.10;;;1.00;;
5010;SDS011;2524;54.364;10.072;2022-09-09T12:49:55;0.80;;;0.80;;
5010;SDS011;2524;54.364;10.072;2022-09-09T12:54:47;0.60;;;0.60;;
5010;SDS011;2524;54.364;10.072;2022-09-09T12:57:15;0.80;;;0.80;;
5010;SDS011;2524;54.364;10.072;2022-09-09T12:59:43;1.70;;;0.90;;
5010;SDS011;2524;54.364;10.072;2022-09-09T13:02:22;1.73;;;0.90;;
5010;SDS011;2524;54.364;10.072;2022-09-09T13:07:34;1.43;;;0.80;;
5010;SDS011;2524;54.364;10.072;2022-09-09T13:10:00;1.87;;;1.20;;
5010;SDS011;2524;54.364;10.072;2022-09-09T13:12:26;2.93;;;0.90;;
5010;SDS011;2524;54.364;10.072;2022-09-09T13:14:52;3.20;;;1.20;;
5010;SDS011;2524;54.364;10.072;2022-09-09T13:17:23;1.63;;;1.00;;
5010;SDS011;2524;54.364;10.072;2022-09-09T13:19:50;1.20;;;0.70;;
5010;SDS011;2524;54.364;10.072;2022-09-09T13:22:31;1.97;;;0.80;;
5010;SDS011;2524;54.364;10.072;2022-09-09T13:25:06;0.77;;;0.77;;
5010;SDS011;2524;54.364;10.072;2022-09-09T13:27:51;1.00;;;1.00;;
5010;SDS011;2524;54.364;10.072;2022-09-09T13:30:22;0.70;;;0.70;;
5010;SDS011;2524;54.364;10.072;2022-09-09T13:33:34;0.70;;;0.70;;
5010;SDS011;2524;54.364;10.072;2022-09-09T13:35:35;0.60;;;0.60;;
5010;SDS011;2524;54.364;10.072;2022-09-09T13:38:12;1.17;;;0.70;;
5010;SDS011;2524;54.364;10.072;2022-09-09T13:40:39;1.07;;;1.00;;
5010;SDS011;2524;54.364;10.072;2022-09-09T13:43:05;0.73;;;0.73;;
5010;SDS011;2524;54.364;10.072;2022-09-09T13:45:40;0.77;;;0.77;;
5010;SDS011;2524;54.364;10.072;2022-09-09T13:48:10;0.90;;;0.90;;
5010;SDS011;2524;54.364;10.072;2022-09-09T13:50:36;0.80;;;0.80;;
5010;SDS011;2524;54.364;10.072;2022-09-09T13:53:12;1.30;;;0.90;;
5010;SDS011;2524;54.364;10.072;2022-09-09T13:55:38;1.17;;;1.00;;
5010;SDS011;2524;54.364;10.072;2022-09-09T13:58:24;0.90;;;0.90;;
5010;SDS011;2524;54.364;10.072;2022-09-09T14:01:11;1.83;;;0.93;;
5010;SDS011;2524;54.364;10.072;2022-09-09T14:04:24;2.00;;;1.20;;
5010;SDS011;2524;54.364;10.072;2022-09-09T14:06:50;0.90;;;0.90;;
5010;SDS011;2524;54.364;10.072;2022-09-09T14:09:36;0.70;;;0.60;;
5010;SDS011;2524;54.364;10.072;2022-09-09T14:12:02;0.87;;;0.87;;
5010;SDS011;2524;54.364;10.072;2022-09-09T14:14:29;0.90;;;0.80;;
5010;SDS011;2524;54.364;10.072;2022-09-09T14:16:56;0.90;;;0.90;;
5010;SDS011;2524;54.364;10.072;2022-09-09T14:19:28;1.20;;;0.83;;
5010;SDS011;2524;54.364;10.072;2022-09-09T14:22:03;0.73;;;0.73;;
5010;SDS011;2524;54.364;10.072;2022-09-09T14:24:40;0.90;;;0.90;;
5010;SDS011;2524;54.364;10.072;2022-09-09T14:27:06;0.97;;;0.90;;
5010;SDS011;2524;54.364;10.072;2022-09-09T14:29:33;1.40;;;1.00;;
5010;SDS011;2524;54.364;10.072;2022-09-09T14:32:00;0.90;;;0.80;;
5010;SDS011;2524;54.364;10.072;2022-09-09T14:34:26;0.93;;;0.80;;
5010;SDS011;2524;54.364;10.072;2022-09-09T14:39:51;0.90;;;0.87;;
5010;SDS011;2524;54.364;10.072;2022-09-09T14:42:24;1.90;;;0.70;;
5010;SDS011;2524;54.364;10.072;2022-09-09T14:44:51;1.10;;;1.00;;
5010;SDS011;2524;54.364;10.072;2022-09-09T14:47:18;1.80;;;1.10;;
5010;SDS011;2524;54.364;10.072;2022-09-09T14:49:44;2.03;;;1.57;;
5010;SDS011;2524;54.364;10.072;2022-09-09T14:52:10;2.00;;;1.40;;
5010;SDS011;2524;54.364;10.072;2022-09-09T14:54:47;6.33;;;1.63;;
5010;SDS011;2524;54.364;10.072;2022-09-09T14:57:46;2.60;;;1.50;;
5010;SDS011;2524;54.364;10.072;2022-09-09T15:00:12;4.50;;;2.03;;
5010;SDS011;2524;54.364;10.072;2022-09-09T15:02:51;2.70;;;1.40;;
5010;SDS011;2524;54.364;10.072;2022-09-09T15:05:42;3.33;;;1.70;;
5010;SDS011;2524;54.364;10.072;2022-09-09T15:08:09;6.17;;;1.80;;
5010;SDS011;2524;54.364;10.072;2022-09-09T15:10:35;1.20;;;1.20;;
5010;SDS011;2524;54.364;10.072;2022-09-09T15:13:10;3.23;;;1.40;;
5010;SDS011;2524;54.364;10.072;2022-09-09T15:16:13;1.00;;;1.00;;
5010;SDS011;2524;54.364;10.072;2022-09-09T15:19:00;1.40;;;1.30;;
5010;SDS011;2524;54.364;10.072;2022-09-09T15:21:46;0.97;;;0.97;;
5010;SDS011;2524;54.364;10.072;2022-09-09T15:24:14;1.00;;;0.90;;
5010;SDS011;2524;54.364;10.072;2022-09-09T15:27:06;1.10;;;1.00;;
5010;SDS011;2524;54.364;10.072;2022-09-09T15:30:14;1.43;;;1.33;;
5010;SDS011;2524;54.364;10.072;2022-09-09T15:32:55;2.00;;;1.47;;
5010;SDS011;2524;54.364;10.072;2022-09-09T15:35:48;4.03;;;1.97;;
5010;SDS011;2524;54.364;10.072;2022-09-09T15:38:15;1.20;;;1.20;;
5010;SDS011;2524;54.364;10.072;2022-09-09T15:40:41;1.73;;;1.00;;
5010;SDS011;2524;54.364;10.072;2022-09-09T15:43:08;4.37;;;0.83;;
5010;SDS011;2524;54.364;10.072;2022-09-09T15:45:36;1.03;;;0.90;;
5010;SDS011;2524;54.364;10.072;2022-09-09T15:48:05;0.87;;;0.80;;
5010;SDS011;2524;54.364;10.072;2022-09-09T15:50:31;0.70;;;0.70;;
5010;SDS011;2524;54.364;10.072;2022-09-09T15:52:57;0.73;;;0.73;;
5010;SDS011;2524;54.364;10.072;2022-09-09T15:55:23;1.07;;;1.00;;
5010;SDS011;2524;54.364;10.072;2022-09-09T15:57:49;1.30;;;1.20;;
5010;SDS011;2524;54.364;10.072;2022-09-09T16:00:17;0.90;;;0.90;;
5010;SDS011;2524;54.364;10.072;2022-09-09T16:02:43;0.80;;;0.80;;
5010;SDS011;2524;54.364;10.072;2022-09-09T16:05:09;0.73;;;0.73;;
5010;SDS011;2524;54.364;10.072;2022-09-09T16:07:35;0.70;;;0.70;;
5010;SDS011;2524;54.364;10.072;2022-09-09T16:10:02;0.60;;;0.60;;
5010;SDS011;2524;54.364;10.072;2022-09-09T16:12:28;1.03;;;0.70;;
5010;SDS011;2524;54.364;10.072;2022-09-09T16:14:54;0.73;;;0.73;;
5010;SDS011;2524;54.364;10.072;2022-09-09T16:17:20;1.27;;;0.80;;
5010;SDS011;2524;54.364;10.072;2022-09-09T16:19:46;0.93;;;0.80;;
5010;SDS011;2524;54.364;10.072;2022-09-09T16:22:12;0.80;;;0.80;;
5010;SDS011;2524;54.364;10.072;2022-09-09T16:24:40;0.60;;;0.60;;
5010;SDS011;2524;54.364;10.072;2022-09-09T16:27:06;0.70;;;0.70;;
5010;SDS011;2524;54.364;10.072;2022-09-09T16:29:33;2.97;;;0.70;;
5010;SDS011;2524;54.364;10.072;2022-09-09T16:31:59;1.13;;;1.00;;
5010;SDS011;2524;54.364;10.072;2022-09-09T16:34:25;4.90;;;1.03;;
5010;SDS011;2524;54.364;10.072;2022-09-09T16:36:51;1.10;;;1.10;;
5010;SDS011;2524;54.364;10.072;2022-09-09T16:39:18;0.83;;;0.83;;
5010;SDS011;2524;54.364;10.072;2022-09-09T16:41:45;1.63;;;0.90;;
5010;SDS011;2524;54.364;10.072;2022-09-09T16:44:13;0.80;;;0.80;;
5010;SDS011;2524;54.364;10.072;2022-09-09T16:46:40;0.93;;;0.80;;
5010;SDS011;2524;54.364;10.072;2022-09-09T16:49:07;0.70;;;0.70;;
5010;SDS011;2524;54.364;10.072;2022-09-09T16:51:35;0.80;;;0.80;;
5010;SDS011;2524;54.364;10.072;2022-09-09T16:54:02;0.67;;;0.67;;